sensor_id;sensor_type;location;lat;lon;timestamp;pressure;altitude;pressure_sealevel;temperature;humidity
74327;BME280;62745;51.060;13.786;2023-05-20T00:01:11;101014.72;;;12.41;81.21
74327;BME280;62745;51.060;13.786;2023-05-20T00:03:36;101029.91;;;12.33;80.93
74327;BME280;62745;51.060;13.786;2023-05-20T00:06:02;101027.59;;;12.30;82.17
74327;BME280;62745;51.060;13.786;2023-05-20T00:08:27;101017.25;;;12.27;81.82
74327;BME280;62745;51.060;13.786;2023-05-20T00:10:52;101017.25;;;12.13;82.69
74327;BME280;62745;51.060;13.786;2023-05-20T00:13:18;101023.44;;;12.13;82.90
74327;BME280;62745;51.060;13.786;2023-05-20T00:15:43;101027.22;;;12.19;82.73
74327;BME280;62745;51.060;13.786;2023-05-20T00:18:08;101028.31;;;12.24;82.72
74327;BME280;62745;51.060;13.786;2023-05-20T00:20:34;101022.41;;;12.14;82.71
74327;BME280;62745;51.060;13.786;2023-05-20T00:22:59;101015.81;;;12.02;83.00
74327;BME280;62745;51.060;13.786;2023-05-20T00:25:24;101001.97;;;11.98;83.42
74327;BME280;62745;51.060;13.786;2023-05-20T00:27:50;101006.50;;;11.98;83.81
74327;BME280;62745;51.060;13.786;2023-05-20T00:30:15;101004.75;;;12.05;83.43
74327;BME280;62745;51.060;13.786;2023-05-20T00:32:40;101002.91;;;12.05;83.39
74327;BME280;62745;51.060;13.786;2023-05-20T00:35:06;101001.44;;;12.03;83.56
74327;BME280;62745;51.060;13.786;2023-05-20T00:37:31;101001.88;;;12.07;83.25
74327;BME280;62745;51.060;13.786;2023-05-20T00:39:57;101000.22;;;12.20;82.60
74327;BME280;62745;51.060;13.786;2023-05-20T00:42:26;100996.28;;;12.16;82.62
74327;BME280;62745;51.060;13.786;2023-05-20T00:44:53;100996.00;;;12.11;83.30
74327;BME280;62745;51.060;13.786;2023-05-20T00:47:20;101000.22;;;12.05;83.38
74327;BME280;62745;51.060;13.786;2023-05-20T00:49:49;100991.94;;;12.15;82.92
74327;BME280;62745;51.060;13.786;2023-05-20T00:52:15;100995.16;;;12.11;83.37
74327;BME280;62745;51.060;13.786;2023-05-20T00:54:41;101012.97;;;12.18;82.99
74327;BME280;62745;51.060;13.786;2023-05-20T00:57:07;101006.41;;;12.06;83.91
74327;BME280;62745;51.060;13.786;2023-05-20T00:59:35;101003.00;;;12.12;83.93
74327;BME280;62745;51.060;13.786;2023-05-20T01:02:01;101008.28;;;12.20;83.33
74327;BME280;62745;51.060;13.786;2023-05-20T01:04:27;101007.44;;;12.05;84.95
74327;BME280;62745;51.060;13.786;2023-05-20T01:06:52;101002.81;;;11.99;85.88
74327;BME280;62745;51.060;13.786;2023-05-20T01:09:17;101017.00;;;11.85;86.64
74327;BME280;62745;51.060;13.786;2023-05-20T01:11:55;101016.22;;;11.76;87.16
74327;BME280;62745;51.060;13.786;2023-05-20T01:14:22;101017.06;;;11.54;88.07
74327;BME280;62745;51.060;13.786;2023-05-20T01:16:50;101019.06;;;11.74;86.97
74327;BME280;62745;51.060;13.786;2023-05-20T01:19:30;101017.47;;;11.65;87.66
74327;BME280;62745;51.060;13.786;2023-05-20T01:22:00;101016.38;;;11.74;86.75
74327;BME280;62745;51.060;13.786;2023-05-20T01:24:27;101008.84;;;11.78;86.71
74327;BME280;62745;51.060;13.786;2023-05-20T01:26:52;101009.00;;;11.62;87.40
74327;BME280;62745;51.060;13.786;2023-05-20T01:29:18;101008.47;;;11.43;88.29
74327;BME280;62745;51.060;13.786;2023-05-20T01:31:45;101016.00;;;11.40;88.60
74327;BME280;62745;51.060;13.786;2023-05-20T01:34:11;101013.13;;;11.41;88.55
74327;BME280;62745;51.060;13.786;2023-05-20T01:36:38;101019.00;;;11.45;88.52
74327;BME280;62745;51.060;13.786;2023-05-20T01:39:04;101009.06;;;11.31;88.78
74327;BME280;62745;51.060;13.786;2023-05-20T01:41:30;101018.84;;;11.38;88.66
74327;BME280;62745;51.060;13.786;2023-05-20T01:43:59;101013.22;;;11.33;89.68
74327;BME280;62745;51.060;13.786;2023-05-20T01:46:24;101022.28;;;11.24;89.43
74327;BME280;62745;51.060;13.786;2023-05-20T01:48:50;101023.97;;;11.48;88.10
74327;BME280;62745;51.060;13.786;2023-05-20T01:51:15;101027.72;;;11.39;88.97
74327;BME280;62745;51.060;13.786;2023-05-20T01:53:41;101019.03;;;11.37;88.76
74327;BME280;62745;51.060;13.786;2023-05-20T01:56:07;101017.09;;;11.31;88.73
74327;BME280;62745;51.060;13.786;2023-05-20T01:58:32;101016.63;;;11.27;89.46
74327;BME280;62745;51.060;13.786;2023-05-20T02:00:57;101014.81;;;11.20;89.85
74327;BME280;62745;51.060;13.786;2023-05-20T02:03:22;101011.00;;;11.14;90.67
74327;BME280;62745;51.060;13.786;2023-05-20T02:05:48;101013.22;;;11.10;90.30
74327;BME280;62745;51.060;13.786;2023-05-20T02:08:13;101009.34;;;11.13;90.18
74327;BME280;62745;51.060;13.786;2023-05-20T02:10:38;101010.03;;;11.07;90.67
74327;BME280;62745;51.060;13.786;2023-05-20T02:13:03;101016.91;;;11.09;91.16
74327;BME280;62745;51.060;13.786;2023-05-20T02:15:29;101018.88;;;11.07;91.46
74327;BME280;62745;51.060;13.786;2023-05-20T02:17:54;101017.03;;;11.08;91.93
74327;BME280;62745;51.060;13.786;2023-05-20T02:20:22;101015.19;;;11.08;91.52
74327;BME280;62745;51.060;13.786;2023-05-20T02:22:47;101011.03;;;11.06;91.79
74327;BME280;62745;51.060;13.786;2023-05-20T02:25:13;101007.25;;;11.00;91.99
74327;BME280;62745;51.060;13.786;2023-05-20T02:27:38;101014.13;;;11.26;90.29
74327;BME280;62745;51.060;13.786;2023-05-20T02:30:05;101006.75;;;11.28;89.96
74327;BME280;62745;51.060;13.786;2023-05-20T02:32:31;101012.38;;;11.33;89.39
74327;BME280;62745;51.060;13.786;2023-05-20T02:34:57;101010.31;;;11.43;89.53
74327;BME280;62745;51.060;13.786;2023-05-20T02:37:22;101015.81;;;11.41;89.34
74327;BME280;62745;51.060;13.786;2023-05-20T02:39:48;101011.19;;;11.35;89.74
74327;BME280;62745;51.060;13.786;2023-05-20T02:42:13;101005.59;;;11.22;90.66
74327;BME280;62745;51.060;13.786;2023-05-20T02:44:38;101001.06;;;11.23;91.33
74327;BME280;62745;51.060;13.786;2023-05-20T02:47:04;100999.31;;;11.15;91.25
74327;BME280;62745;51.060;13.786;2023-05-20T02:49:29;101001.06;;;11.23;90.91
74327;BME280;62745;51.060;13.786;2023-05-20T02:51:54;100995.63;;;11.16;91.47
74327;BME280;62745;51.060;13.786;2023-05-20T02:54:20;100988.53;;;11.23;90.09
74327;BME280;62745;51.060;13.786;2023-05-20T02:56:46;100990.56;;;11.21;90.10
74327;BME280;62745;51.060;13.786;2023-05-20T02:59:11;100970.56;;;10.86;91.19
74327;BME280;62745;51.060;13.786;2023-05-20T03:01:36;100975.69;;;10.96;91.74
74327;BME280;62745;51.060;13.786;2023-05-20T03:04:02;100974.72;;;10.89;91.94
74327;BME280;62745;51.060;13.786;2023-05-20T03:06:27;100960.63;;;10.72;92.30
74327;BME280;62745;51.060;13.786;2023-05-20T03:08:54;100960.97;;;10.69;93.32
74327;BME280;62745;51.060;13.786;2023-05-20T03:11:19;100954.03;;;10.60;94.16
74327;BME280;62745;51.060;13.786;2023-05-20T03:13:45;100961.97;;;10.76;92.54
74327;BME280;62745;51.060;13.786;2023-05-20T03:16:11;100960.13;;;10.37;94.89
74327;BME280;62745;51.060;13.786;2023-05-20T03:18:37;100966.13;;;10.39;94.91
74327;BME280;62745;51.060;13.786;2023-05-20T03:21:02;100960.78;;;10.39;94.69
74327;BME280;62745;51.060;13.786;2023-05-20T03:23:28;100967.47;;;10.43;95.19
74327;BME280;62745;51.060;13.786;2023-05-20T03:25:53;100965.81;;;10.42;94.32
74327;BME280;62745;51.060;13.786;2023-05-20T03:28:19;100969.25;;;10.51;94.78
74327;BME280;62745;51.060;13.786;2023-05-20T03:30:44;100971.84;;;10.67;94.08
74327;BME280;62745;51.060;13.786;2023-05-20T03:33:09;100969.81;;;10.77;93.57
74327;BME280;62745;51.060;13.786;2023-05-20T03:35:35;100982.38;;;10.92;92.72
74327;BME280;62745;51.060;13.786;2023-05-20T03:38:00;100975.38;;;10.91;92.53
74327;BME280;62745;51.060;13.786;2023-05-20T03:40:26;100971.19;;;10.96;92.92
74327;BME280;62745;51.060;13.786;2023-05-20T03:42:51;100969.16;;;10.98;92.95
74327;BME280;62745;51.060;13.786;2023-05-20T03:45:16;100980.28;;;11.10;92.49
74327;BME280;62745;51.060;13.786;2023-05-20T03:47:41;100979.22;;;11.19;91.81
74327;BME280;62745;51.060;13.786;2023-05-20T03:50:07;100978.63;;;11.32;91.07
74327;BME280;62745;51.060;13.786;2023-05-20T03:52:32;100982.22;;;11.39;90.88
74327;BME280;62745;51.060;13.786;2023-05-20T03:54:58;100983.59;;;11.35;91.47
74327;BME280;62745;51.060;13.786;2023-05-20T03:57:23;100986.28;;;11.35;90.81
74327;BME280;62745;51.060;13.786;2023-05-20T03:59:49;100985.88;;;11.46;90.49
74327;BME280;62745;51.060;13.786;2023-05-20T04:02:15;100983.97;;;11.69;89.51
74327;BME280;62745;51.060;13.786;2023-05-20T04:04:40;100983.97;;;11.69;89.69
74327;BME280;62745;51.060;13.786;2023-05-20T04:07:08;100975.41;;;11.74;89.10
74327;BME280;62745;51.060;13.786;2023-05-20T04:09:33;100982.19;;;11.85;88.14
74327;BME280;62745;51.060;13.786;2023-05-20T04:11:58;100974.94;;;11.70;89.20
74327;BME280;62745;51.060;13.786;2023-05-20T04:14:23;100976.41;;;11.73;89.46
74327;BME280;62745;51.060;13.786;2023-05-20T04:16:49;100978.34;;;11.64;89.63
74327;BME280;62745;51.060;13.786;2023-05-20T04:19:15;100983.06;;;11.62;90.46
74327;BME280;62745;51.060;13.786;2023-05-20T04:21:43;100983.47;;;11.51;90.36
74327;BME280;62745;51.060;13.786;2023-05-20T04:24:09;100985.38;;;11.65;89.71
74327;BME280;62745;51.060;13.786;2023-05-20T04:26:34;100976.91;;;11.77;89.57
74327;BME280;62745;51.060;13.786;2023-05-20T04:29:01;100975.66;;;11.87;88.86
74327;BME280;62745;51.060;13.786;2023-05-20T04:31:29;100979.91;;;11.96;88.46
74327;BME280;62745;51.060;13.786;2023-05-20T04:33:55;100974.66;;;12.03;88.16
74327;BME280;62745;51.060;13.786;2023-05-20T04:36:21;100980.84;;;12.03;88.07
74327;BME280;62745;51.060;13.786;2023-05-20T04:38:46;100989.81;;;12.11;87.76
74327;BME280;62745;51.060;13.786;2023-05-20T04:41:12;100982.78;;;12.10;88.05
74327;BME280;62745;51.060;13.786;2023-05-20T04:43:37;100990.53;;;12.19;86.74
74327;BME280;62745;51.060;13.786;2023-05-20T04:46:04;100984.59;;;12.09;87.77
74327;BME280;62745;51.060;13.786;2023-05-20T04:48:30;100974.00;;;12.16;87.46
74327;BME280;62745;51.060;13.786;2023-05-20T04:50:55;100988.97;;;12.25;87.49
74327;BME280;62745;51.060;13.786;2023-05-20T04:53:21;100986.56;;;12.30;87.24
74327;BME280;62745;51.060;13.786;2023-05-20T04:55:47;100983.22;;;12.43;86.61
74327;BME280;62745;51.060;13.786;2023-05-20T04:58:14;100982.03;;;12.45;86.46
74327;BME280;62745;51.060;13.786;2023-05-20T05:00:41;100981.53;;;12.56;86.25
74327;BME280;62745;51.060;13.786;2023-05-20T05:03:07;100982.19;;;12.58;86.13
74327;BME280;62745;51.060;13.786;2023-05-20T05:05:34;100978.22;;;12.54;86.34
74327;BME280;62745;51.060;13.786;2023-05-20T05:08:02;100979.88;;;12.70;85.75
74327;BME280;62745;51.060;13.786;2023-05-20T05:10:27;100970.91;;;12.78;85.46
74327;BME280;62745;51.060;13.786;2023-05-20T05:12:52;100978.19;;;12.84;85.39
74327;BME280;62745;51.060;13.786;2023-05-20T05:15:18;100969.94;;;12.85;84.89
74327;BME280;62745;51.060;13.786;2023-05-20T05:17:43;100969.94;;;12.85;85.12
74327;BME280;62745;51.060;13.786;2023-05-20T05:20:08;100973.41;;;13.01;84.44
74327;BME280;62745;51.060;13.786;2023-05-20T05:22:34;100972.53;;;12.93;85.30
74327;BME280;62745;51.060;13.786;2023-05-20T05:25:02;100973.06;;;12.89;85.16
74327;BME280;62745;51.060;13.786;2023-05-20T05:27:27;100967.06;;;13.08;84.18
74327;BME280;62745;51.060;13.786;2023-05-20T05:29:52;100965.41;;;13.07;84.19
74327;BME280;62745;51.060;13.786;2023-05-20T05:32:17;100970.53;;;13.02;84.07
74327;BME280;62745;51.060;13.786;2023-05-20T05:34:43;100977.31;;;12.98;84.51
74327;BME280;62745;51.060;13.786;2023-05-20T05:37:08;100970.72;;;13.01;84.12
74327;BME280;62745;51.060;13.786;2023-05-20T05:39:33;100975.84;;;12.95;84.99
74327;BME280;62745;51.060;13.786;2023-05-20T05:42:01;100978.81;;;13.07;84.48
74327;BME280;62745;51.060;13.786;2023-05-20T05:44:26;100979.19;;;13.19;84.21
74327;BME280;62745;51.060;13.786;2023-05-20T05:46:52;100980.59;;;13.36;83.48
74327;BME280;62745;51.060;13.786;2023-05-20T05:49:17;100974.97;;;13.52;82.88
74327;BME280;62745;51.060;13.786;2023-05-20T05:51:42;100974.31;;;13.50;82.70
74327;BME280;62745;51.060;13.786;2023-05-20T05:54:07;100971.53;;;13.93;84.08
74327;BME280;62745;51.060;13.786;2023-05-20T05:56:33;100973.13;;;13.81;81.41
74327;BME280;62745;51.060;13.786;2023-05-20T05:58:58;100966.78;;;13.89;82.78
74327;BME280;62745;51.060;13.786;2023-05-20T06:01:23;100965.19;;;13.94;81.15
74327;BME280;62745;51.060;13.786;2023-05-20T06:03:48;100962.53;;;14.01;80.19
74327;BME280;62745;51.060;13.786;2023-05-20T06:06:13;100960.03;;;13.99;80.52
74327;BME280;62745;51.060;13.786;2023-05-20T06:08:39;100954.59;;;13.93;81.36
74327;BME280;62745;51.060;13.786;2023-05-20T06:11:04;100955.13;;;14.09;80.81
74327;BME280;62745;51.060;13.786;2023-05-20T06:13:29;100953.75;;;14.20;80.60
74327;BME280;62745;51.060;13.786;2023-05-20T06:15:55;100956.84;;;14.24;80.12
74327;BME280;62745;51.060;13.786;2023-05-20T06:18:20;100953.31;;;14.17;79.72
74327;BME280;62745;51.060;13.786;2023-05-20T06:20:45;100958.16;;;14.34;80.52
74327;BME280;62745;51.060;13.786;2023-05-20T06:23:10;100968.69;;;14.29;78.85
74327;BME280;62745;51.060;13.786;2023-05-20T06:25:35;100972.34;;;14.22;79.22
74327;BME280;62745;51.060;13.786;2023-05-20T06:28:01;100963.94;;;14.31;79.13
74327;BME280;62745;51.060;13.786;2023-05-20T06:30:26;100969.22;;;14.11;80.09
74327;BME280;62745;51.060;13.786;2023-05-20T06:32:51;100959.63;;;14.37;78.88
74327;BME280;62745;51.060;13.786;2023-05-20T06:35:17;100961.47;;;14.36;78.86
74327;BME280;62745;51.060;13.786;2023-05-20T06:37:42;100967.19;;;14.20;79.99
74327;BME280;62745;51.060;13.786;2023-05-20T06:40:08;100965.41;;;14.34;79.60
74327;BME280;62745;51.060;13.786;2023-05-20T06:42:33;100972.19;;;14.30;79.25
74327;BME280;62745;51.060;13.786;2023-05-20T06:44:58;100967.19;;;14.27;79.06
74327;BME280;62745;51.060;13.786;2023-05-20T06:47:24;100957.22;;;14.49;79.18
74327;BME280;62745;51.060;13.786;2023-05-20T06:49:49;100957.66;;;14.52;79.31
74327;BME280;62745;51.060;13.786;2023-05-20T06:52:15;100953.47;;;14.97;76.83
74327;BME280;62745;51.060;13.786;2023-05-20T06:54:40;100952.53;;;14.70;77.71
74327;BME280;62745;51.060;13.786;2023-05-20T06:57:06;100940.19;;;14.89;77.65
74327;BME280;62745;51.060;13.786;2023-05-20T06:59:33;100939.38;;;14.95;nan
74327;BME280;62745;51.060;13.786;2023-05-20T07:01:58;100942.69;;;15.04;75.88
74327;BME280;62745;51.060;13.786;2023-05-20T07:04:23;100935.22;;;14.93;75.76
74327;BME280;62745;51.060;13.786;2023-05-20T07:06:48;100934.03;;;15.15;76.53
74327;BME280;62745;51.060;13.786;2023-05-20T07:09:14;100932.81;;;15.31;76.28
74327;BME280;62745;51.060;13.786;2023-05-20T07:11:39;100929.06;;;15.39;75.40
74327;BME280;62745;51.060;13.786;2023-05-20T07:14:04;100925.97;;;15.48;74.66
74327;BME280;62745;51.060;13.786;2023-05-20T07:16:29;100915.81;;;15.57;74.30
74327;BME280;62745;51.060;13.786;2023-05-20T07:18:56;100923.28;;;15.68;73.51
74327;BME280;62745;51.060;13.786;2023-05-20T07:21:21;100920.34;;;15.76;73.95
74327;BME280;62745;51.060;13.786;2023-05-20T07:23:47;100919.31;;;15.57;74.07
74327;BME280;62745;51.060;13.786;2023-05-20T07:26:12;100926.56;;;15.57;74.61
74327;BME280;62745;51.060;13.786;2023-05-20T07:28:37;100924.72;;;15.57;74.91
74327;BME280;62745;51.060;13.786;2023-05-20T07:31:03;100924.94;;;15.36;74.74
74327;BME280;62745;51.060;13.786;2023-05-20T07:33:28;100919.97;;;15.33;74.36
74327;BME280;62745;51.060;13.786;2023-05-20T07:35:54;100915.41;;;15.33;74.81
74327;BME280;62745;51.060;13.786;2023-05-20T07:38:20;100914.16;;;15.36;74.50
74327;BME280;62745;51.060;13.786;2023-05-20T07:40:45;100906.69;;;15.51;74.89
74327;BME280;62745;51.060;13.786;2023-05-20T07:43:10;100899.63;;;15.57;74.84
74327;BME280;62745;51.060;13.786;2023-05-20T07:45:36;100901.53;;;15.50;74.89
74327;BME280;62745;51.060;13.786;2023-05-20T07:48:02;100912.06;;;15.45;75.76
74327;BME280;62745;51.060;13.786;2023-05-20T07:50:27;100909.38;;;15.51;75.35
74327;BME280;62745;51.060;13.786;2023-05-20T07:52:55;100913.53;;;15.47;75.30
74327;BME280;62745;51.060;13.786;2023-05-20T07:55:21;100913.13;;;15.30;75.30
74327;BME280;62745;51.060;13.786;2023-05-20T07:57:46;100916.22;;;15.27;75.80
74327;BME280;62745;51.060;13.786;2023-05-20T08:00:11;100912.28;;;15.37;75.14
74327;BME280;62745;51.060;13.786;2023-05-20T08:02:37;100917.88;;;15.42;75.89
74327;BME280;62745;51.060;13.786;2023-05-20T08:05:03;100904.00;;;15.58;75.05
74327;BME280;62745;51.060;13.786;2023-05-20T08:07:29;100905.28;;;15.62;73.64
74327;BME280;62745;51.060;13.786;2023-05-20T08:09:55;100902.56;;;15.69;74.45
74327;BME280;62745;51.060;13.786;2023-05-20T08:12:20;100896.97;;;15.70;73.72
74327;BME280;62745;51.060;13.786;2023-05-20T08:14:46;100897.13;;;15.88;73.13
74327;BME280;62745;51.060;13.786;2023-05-20T08:17:11;100891.06;;;16.06;72.89
74327;BME280;62745;51.060;13.786;2023-05-20T08:19:36;100888.56;;;16.18;72.76
74327;BME280;62745;51.060;13.786;2023-05-20T08:22:02;100876.16;;;16.04;71.91
74327;BME280;62745;51.060;13.786;2023-05-20T08:24:28;100876.56;;;16.07;72.24
74327;BME280;62745;51.060;13.786;2023-05-20T08:26:53;100879.72;;;15.98;72.06
74327;BME280;62745;51.060;13.786;2023-05-20T08:29:18;100881.72;;;16.09;71.60
74327;BME280;62745;51.060;13.786;2023-05-20T08:31:44;100888.34;;;16.58;71.64
74327;BME280;62745;51.060;13.786;2023-05-20T08:34:09;100872.50;;;17.06;70.23
74327;BME280;62745;51.060;13.786;2023-05-20T08:36:34;100874.44;;;17.24;68.69
74327;BME280;62745;51.060;13.786;2023-05-20T08:39:00;100874.28;;;17.19;69.56
74327;BME280;62745;51.060;13.786;2023-05-20T08:41:25;100870.56;;;17.13;68.98
74327;BME280;62745;51.060;13.786;2023-05-20T08:43:52;100857.59;;;17.03;68.64
74327;BME280;62745;51.060;13.786;2023-05-20T08:46:17;100852.16;;;17.28;68.49
74327;BME280;62745;51.060;13.786;2023-05-20T08:48:44;100849.22;;;17.55;67.48
74327;BME280;62745;51.060;13.786;2023-05-20T08:51:10;100857.25;;;17.68;68.60
74327;BME280;62745;51.060;13.786;2023-05-20T08:53:35;100845.88;;;17.96;67.11
74327;BME280;62745;51.060;13.786;2023-05-20T08:56:01;100845.22;;;18.19;64.61
74327;BME280;62745;51.060;13.786;2023-05-20T08:58:30;100843.41;;;18.31;63.71
74327;BME280;62745;51.060;13.786;2023-05-20T09:00:57;100841.81;;;18.23;65.35
74327;BME280;62745;51.060;13.786;2023-05-20T09:03:23;100837.38;;;18.11;66.07
74327;BME280;62745;51.060;13.786;2023-05-20T09:05:49;100844.53;;;18.23;65.57
74327;BME280;62745;51.060;13.786;2023-05-20T09:08:15;100848.59;;;18.44;64.73
74327;BME280;62745;51.060;13.786;2023-05-20T09:10:40;100843.13;;;18.51;63.75
74327;BME280;62745;51.060;13.786;2023-05-20T09:13:07;100852.41;;;18.55;64.07
74327;BME280;62745;51.060;13.786;2023-05-20T09:15:33;100845.94;;;18.56;63.78
74327;BME280;62745;51.060;13.786;2023-05-20T09:17:59;100844.16;;;18.50;64.35
74327;BME280;62745;51.060;13.786;2023-05-20T09:20:26;100846.34;;;18.41;65.44
74327;BME280;62745;51.060;13.786;2023-05-20T09:22:53;100837.53;;;18.46;64.79
74327;BME280;62745;51.060;13.786;2023-05-20T09:25:19;100841.72;;;18.60;65.48
74327;BME280;62745;51.060;13.786;2023-05-20T09:27:45;100838.66;;;18.86;65.06
74327;BME280;62745;51.060;13.786;2023-05-20T09:30:11;100836.84;;;18.80;64.43
74327;BME280;62745;51.060;13.786;2023-05-20T09:32:37;100846.91;;;18.91;63.32
74327;BME280;62745;51.060;13.786;2023-05-20T09:35:02;100842.53;;;18.90;63.93
74327;BME280;62745;51.060;13.786;2023-05-20T09:37:30;100841.59;;;18.85;64.29
74327;BME280;62745;51.060;13.786;2023-05-20T09:40:02;100833.34;;;18.91;65.04
74327;BME280;62745;51.060;13.786;2023-05-20T09:42:38;100830.03;;;18.78;64.23
74327;BME280;62745;51.060;13.786;2023-05-20T09:45:05;100829.13;;;18.84;63.91
74327;BME280;62745;51.060;13.786;2023-05-20T09:47:37;100828.09;;;19.20;64.32
74327;BME280;62745;51.060;13.786;2023-05-20T09:50:07;100827.25;;;19.08;63.52
74327;BME280;62745;51.060;13.786;2023-05-20T09:52:36;100826.72;;;18.76;64.09
74327;BME280;62745;51.060;13.786;2023-05-20T09:55:04;100825.75;;;19.00;64.00
74327;BME280;62745;51.060;13.786;2023-05-20T09:57:32;100824.88;;;18.88;64.52
74327;BME280;62745;51.060;13.786;2023-05-20T09:59:57;100817.91;;;18.80;64.12
74327;BME280;62745;51.060;13.786;2023-05-20T10:02:23;100815.44;;;18.79;64.86
74327;BME280;62745;51.060;13.786;2023-05-20T10:04:50;100811.00;;;19.08;63.78
74327;BME280;62745;51.060;13.786;2023-05-20T10:10:34;100805.66;;;18.78;64.22
74327;BME280;62745;51.060;13.786;2023-05-20T10:13:24;100806.31;;;19.03;63.90
74327;BME280;62745;51.060;13.786;2023-05-20T10:16:05;100790.41;;;19.07;63.27
74327;BME280;62745;51.060;13.786;2023-05-20T10:19:00;100796.53;;;19.26;62.97
74327;BME280;62745;51.060;13.786;2023-05-20T10:21:29;100772.63;;;19.22;63.31
74327;BME280;62745;51.060;13.786;2023-05-20T10:24:04;100783.47;;;19.11;63.54
74327;BME280;62745;51.060;13.786;2023-05-20T10:26:37;100782.78;;;19.15;63.14
74327;BME280;62745;51.060;13.786;2023-05-20T10:29:14;100776.75;;;19.25;62.86
74327;BME280;62745;51.060;13.786;2023-05-20T10:31:44;100786.41;;;19.21;63.27
74327;BME280;62745;51.060;13.786;2023-05-20T10:34:21;100774.84;;;19.49;63.37
74327;BME280;62745;51.060;13.786;2023-05-20T10:39:17;100778.50;;;20.06;60.47
74327;BME280;62745;51.060;13.786;2023-05-20T10:41:43;100766.97;;;19.99;60.91
74327;BME280;62745;51.060;13.786;2023-05-20T10:44:08;100765.03;;;19.83;61.57
74327;BME280;62745;51.060;13.786;2023-05-20T10:46:34;100770.13;;;20.08;61.18
74327;BME280;62745;51.060;13.786;2023-05-20T10:49:02;100772.41;;;19.99;61.31
74327;BME280;62745;51.060;13.786;2023-05-20T10:51:29;100764.69;;;20.36;60.54
74327;BME280;62745;51.060;13.786;2023-05-20T10:53:56;100759.13;;;20.43;61.16
74327;BME280;62745;51.060;13.786;2023-05-20T10:56:23;100756.53;;;20.36;59.90
74327;BME280;62745;51.060;13.786;2023-05-20T10:58:50;100758.31;;;20.31;60.65
74327;BME280;62745;51.060;13.786;2023-05-20T11:01:16;100755.03;;;20.57;58.82
74327;BME280;62745;51.060;13.786;2023-05-20T11:03:43;100743.16;;;20.80;59.04
74327;BME280;62745;51.060;13.786;2023-05-20T11:06:11;100740.88;;;20.89;59.51
74327;BME280;62745;51.060;13.786;2023-05-20T11:08:36;100735.59;;;20.99;59.52
74327;BME280;62745;51.060;13.786;2023-05-20T11:11:02;100738.53;;;21.14;57.29
74327;BME280;62745;51.060;13.786;2023-05-20T11:13:27;100733.81;;;20.88;57.92
74327;BME280;62745;51.060;13.786;2023-05-20T11:15:52;100741.44;;;20.91;58.02
74327;BME280;62745;51.060;13.786;2023-05-20T11:18:18;100734.44;;;20.95;57.97
74327;BME280;62745;51.060;13.786;2023-05-20T11:20:45;100728.59;;;21.03;57.50
74327;BME280;62745;51.060;13.786;2023-05-20T11:23:13;100734.16;;;21.13;57.06
74327;BME280;62745;51.060;13.786;2023-05-20T11:25:38;100723.06;;;21.53;57.58
74327;BME280;62745;51.060;13.786;2023-05-20T11:28:03;100729.69;;;21.84;56.67
74327;BME280;62745;51.060;13.786;2023-05-20T11:30:32;100719.38;;;21.86;55.10
74327;BME280;62745;51.060;13.786;2023-05-20T11:33:02;100723.09;;;21.80;55.39
74327;BME280;62745;51.060;13.786;2023-05-20T11:35:28;100717.75;;;22.12;56.11
74327;BME280;62745;51.060;13.786;2023-05-20T11:38:05;100714.34;;;22.54;55.10
74327;BME280;62745;51.060;13.786;2023-05-20T11:40:32;100699.00;;;22.80;53.72
74327;BME280;62745;51.060;13.786;2023-05-20T11:43:02;100711.38;;;22.61;54.00
74327;BME280;62745;51.060;13.786;2023-05-20T11:45:41;100695.06;;;22.61;54.96
74327;BME280;62745;51.060;13.786;2023-05-20T11:48:07;100692.44;;;22.76;54.10
74327;BME280;62745;51.060;13.786;2023-05-20T11:50:35;100693.88;;;22.84;53.13
74327;BME280;62745;51.060;13.786;2023-05-20T11:53:04;100684.94;;;22.88;53.92
74327;BME280;62745;51.060;13.786;2023-05-20T11:55:31;100682.25;;;22.98;52.72
74327;BME280;62745;51.060;13.786;2023-05-20T11:57:57;100689.13;;;23.06;52.82
74327;BME280;62745;51.060;13.786;2023-05-20T12:00:23;100684.84;;;23.25;52.32
74327;BME280;62745;51.060;13.786;2023-05-20T12:02:48;100672.03;;;23.26;51.56
74327;BME280;62745;51.060;13.786;2023-05-20T12:05:14;100677.13;;;23.02;52.21
74327;BME280;62745;51.060;13.786;2023-05-20T12:07:40;100680.84;;;23.48;51.13
74327;BME280;62745;51.060;13.786;2023-05-20T12:10:05;100677.63;;;22.99;52.72
74327;BME280;62745;51.060;13.786;2023-05-20T12:12:31;100665.63;;;22.95;52.64
74327;BME280;62745;51.060;13.786;2023-05-20T12:14:56;100658.47;;;23.36;52.40
74327;BME280;62745;51.060;13.786;2023-05-20T12:17:21;100665.47;;;23.99;50.46
74327;BME280;62745;51.060;13.786;2023-05-20T12:19:47;100644.69;;;23.73;50.21
74327;BME280;62745;51.060;13.786;2023-05-20T12:22:12;100652.16;;;24.54;49.07
74327;BME280;62745;51.060;13.786;2023-05-20T12:24:37;100633.56;;;24.30;49.12
74327;BME280;62745;51.060;13.786;2023-05-20T12:27:02;100638.22;;;24.40;49.50
74327;BME280;62745;51.060;13.786;2023-05-20T12:29:30;100633.28;;;24.57;48.87
74327;BME280;62745;51.060;13.786;2023-05-20T12:31:55;100635.72;;;24.74;48.74
74327;BME280;62745;51.060;13.786;2023-05-20T12:34:20;100632.16;;;24.64;48.37
74327;BME280;62745;51.060;13.786;2023-05-20T12:36:46;100627.72;;;24.93;48.20
74327;BME280;62745;51.060;13.786;2023-05-20T12:39:13;100622.75;;;25.15;47.75
74327;BME280;62745;51.060;13.786;2023-05-20T12:41:41;100619.50;;;25.68;46.57